sensor_id;sensor_type;location;lat;lon;timestamp;P1;durP1;ratioP1;P2;durP2;ratioP2
6878;SDS011;3478;51.462;7.338;2023-03-01T00:04:36;10.00;;;7.73;;
6878;SDS011;3478;51.462;7.338;2023-03-01T00:09:38;8.90;;;7.23;;
6878;SDS011;3478;51.462;7.338;2023-03-01T00:14:40;10.90;;;7.83;;
6878;SDS011;3478;51.462;7.338;2023-03-01T00:19:43;10.63;;;7.13;;
6878;SDS011;3478;51.462;7.338;2023-03-01T00:24:45;8.10;;;7.40;;
6878;SDS011;3478;51.462;7.338;2023-03-01T00:29:47;7.20;;;6.53;;
6878;SDS011;3478;51.462;7.338;2023-03-01T00:34:50;7.63;;;6.93;;
6878;SDS011;3478;51.462;7.338;2023-03-01T00:39:55;11.83;;;6.70;;
6878;SDS011;3478;51.462;7.338;2023-03-01T00:44:56;8.13;;;7.27;;
6878;SDS011;3478;51.462;7.338;2023-03-01T00:50:00;8.27;;;7.30;;
6878;SDS011;3478;51.462;7.338;2023-03-01T00:55:01;10.57;;;8.33;;
6878;SDS011;3478;51.462;7.338;2023-03-01T01:00:04;10.77;;;6.90;;
6878;SDS011;3478;51.462;7.338;2023-03-01T01:05:08;8.33;;;7.20;;
6878;SDS011;3478;51.462;7.338;2023-03-01T01:10:10;9.40;;;6.87;;
6878;SDS011;3478;51.462;7.338;2023-03-01T01:15:17;9.87;;;7.70;;
6878;SDS011;3478;51.462;7.338;2023-03-01T01:20:20;11.40;;;7.20;;
6878;SDS011;3478;51.462;7.338;2023-03-01T01:25:22;8.90;;;8.20;;
6878;SDS011;3478;51.462;7.338;2023-03-01T01:30:24;9.93;;;7.20;;
6878;SDS011;3478;51.462;7.338;2023-03-01T01:35:28;9.97;;;7.43;;
6878;SDS011;3478;51.462;7.338;2023-03-01T01:40:30;10.40;;;7.80;;
6878;SDS011;3478;51.462;7.338;2023-03-01T01:45:32;10.27;;;7.30;;
6878;SDS011;3478;51.462;7.338;2023-03-01T01:50:37;9.23;;;8.33;;
6878;SDS011;3478;51.462;7.338;2023-03-01T01:55:42;9.63;;;8.73;;
6878;SDS011;3478;51.462;7.338;2023-03-01T02:00:46;6.97;;;6.37;;
6878;SDS011;3478;51.462;7.338;2023-03-01T02:05:51;12.03;;;7.57;;
6878;SDS011;3478;51.462;7.338;2023-03-01T02:10:58;9.10;;;6.97;;
6878;SDS011;3478;51.462;7.338;2023-03-01T02:16:02;9.83;;;6.90;;
6878;SDS011;3478;51.462;7.338;2023-03-01T02:21:11;13.10;;;8.43;;
6878;SDS011;3478;51.462;7.338;2023-03-01T02:26:33;10.37;;;8.50;;
6878;SDS011;3478;51.462;7.338;2023-03-01T02:31:43;11.10;;;8.80;;
6878;SDS011;3478;51.462;7.338;2023-03-01T02:36:45;8.97;;;8.00;;
6878;SDS011;3478;51.462;7.338;2023-03-01T02:41:50;9.17;;;8.23;;
6878;SDS011;3478;51.462;7.338;2023-03-01T02:46:55;11.10;;;9.03;;
6878;SDS011;3478;51.462;7.338;2023-03-01T02:52:02;14.80;;;8.53;;
6878;SDS011;3478;51.462;7.338;2023-03-01T02:57:18;12.03;;;9.20;;
6878;SDS011;3478;51.462;7.338;2023-03-01T03:02:24;12.20;;;8.73;;
6878;SDS011;3478;51.462;7.338;2023-03-01T03:07:37;12.40;;;8.33;;
6878;SDS011;3478;51.462;7.338;2023-03-01T03:12:41;12.63;;;8.67;;
6878;SDS011;3478;51.462;7.338;2023-03-01T03:17:45;8.90;;;8.03;;
6878;SDS011;3478;51.462;7.338;2023-03-01T03:22:48;15.30;;;9.90;;
6878;SDS011;3478;51.462;7.338;2023-03-01T03:27:51;15.60;;;8.90;;
6878;SDS011;3478;51.462;7.338;2023-03-01T03:32:58;13.83;;;8.33;;
6878;SDS011;3478;51.462;7.338;2023-03-01T03:38:01;10.13;;;9.07;;
6878;SDS011;3478;51.462;7.338;2023-03-01T03:43:07;12.17;;;9.20;;
6878;SDS011;3478;51.462;7.338;2023-03-01T03:48:12;15.20;;;8.80;;
6878;SDS011;3478;51.462;7.338;2023-03-01T03:53:14;9.53;;;8.60;;
6878;SDS011;3478;51.462;7.338;2023-03-01T03:58:15;14.40;;;10.50;;
6878;SDS011;3478;51.462;7.338;2023-03-01T04:03:21;11.70;;;10.50;;
6878;SDS011;3478;51.462;7.338;2023-03-01T04:08:24;10.97;;;8.60;;
6878;SDS011;3478;51.462;7.338;2023-03-01T04:13:26;14.20;;;8.20;;
6878;SDS011;3478;51.462;7.338;2023-03-01T04:18:29;12.23;;;10.23;;
6878;SDS011;3478;51.462;7.338;2023-03-01T04:23:31;10.90;;;8.73;;
6878;SDS011;3478;51.462;7.338;2023-03-01T04:28:33;9.87;;;8.30;;
6878;SDS011;3478;51.462;7.338;2023-03-01T04:33:37;10.87;;;8.73;;
6878;SDS011;3478;51.462;7.338;2023-03-01T04:38:41;17.33;;;10.27;;
6878;SDS011;3478;51.462;7.338;2023-03-01T04:43:47;10.20;;;8.30;;
6878;SDS011;3478;51.462;7.338;2023-03-01T04:48:50;11.60;;;9.00;;
6878;SDS011;3478;51.462;7.338;2023-03-01T04:53:52;11.53;;;9.40;;
6878;SDS011;3478;51.462;7.338;2023-03-01T04:58:55;14.73;;;10.40;;
6878;SDS011;3478;51.462;7.338;2023-03-01T05:03:58;14.10;;;9.53;;
6878;SDS011;3478;51.462;7.338;2023-03-01T05:09:03;10.87;;;9.57;;
6878;SDS011;3478;51.462;7.338;2023-03-01T05:14:05;12.77;;;9.77;;
6878;SDS011;3478;51.462;7.338;2023-03-01T05:19:09;16.40;;;10.03;;
6878;SDS011;3478;51.462;7.338;2023-03-01T05:24:15;15.00;;;9.53;;
6878;SDS011;3478;51.462;7.338;2023-03-01T05:29:17;10.90;;;9.77;;
6878;SDS011;3478;51.462;7.338;2023-03-01T05:34:26;14.23;;;10.17;;
6878;SDS011;3478;51.462;7.338;2023-03-01T05:39:30;12.20;;;10.13;;
6878;SDS011;3478;51.462;7.338;2023-03-01T05:44:32;13.87;;;10.67;;
6878;SDS011;3478;51.462;7.338;2023-03-01T05:49:35;12.50;;;10.80;;
6878;SDS011;3478;51.462;7.338;2023-03-01T05:54:37;14.93;;;10.90;;
6878;SDS011;3478;51.462;7.338;2023-03-01T05:59:39;12.70;;;11.00;;
6878;SDS011;3478;51.462;7.338;2023-03-01T06:04:42;12.80;;;10.80;;
6878;SDS011;3478;51.462;7.338;2023-03-01T06:09:44;17.77;;;11.87;;
6878;SDS011;3478;51.462;7.338;2023-03-01T06:14:46;13.90;;;11.90;;
6878;SDS011;3478;51.462;7.338;2023-03-01T06:19:49;13.87;;;11.40;;
6878;SDS011;3478;51.462;7.338;2023-03-01T06:24:51;17.60;;;12.07;;
6878;SDS011;3478;51.462;7.338;2023-03-01T06:29:53;19.97;;;11.60;;
6878;SDS011;3478;51.462;7.338;2023-03-01T06:34:56;14.23;;;11.97;;
6878;SDS011;3478;51.462;7.338;2023-03-01T06:39:59;14.03;;;12.53;;
6878;SDS011;3478;51.462;7.338;2023-03-01T06:45:05;18.27;;;12.97;;
6878;SDS011;3478;51.462;7.338;2023-03-01T06:50:11;21.50;;;13.07;;
6878;SDS011;3478;51.462;7.338;2023-03-01T06:55:13;17.60;;;12.70;;
6878;SDS011;3478;51.462;7.338;2023-03-01T07:00:15;17.70;;;12.60;;
6878;SDS011;3478;51.462;7.338;2023-03-01T07:05:19;20.53;;;14.17;;
6878;SDS011;3478;51.462;7.338;2023-03-01T07:10:22;27.10;;;14.67;;
6878;SDS011;3478;51.462;7.338;2023-03-01T07:15:24;21.10;;;13.20;;
6878;SDS011;3478;51.462;7.338;2023-03-01T07:20:27;21.23;;;12.03;;
6878;SDS011;3478;51.462;7.338;2023-03-01T07:25:29;22.73;;;12.40;;
6878;SDS011;3478;51.462;7.338;2023-03-01T07:30:32;20.63;;;12.63;;
6878;SDS011;3478;51.462;7.338;2023-03-01T07:35:35;16.00;;;12.20;;
6878;SDS011;3478;51.462;7.338;2023-03-01T07:40:37;15.60;;;12.97;;
6878;SDS011;3478;51.462;7.338;2023-03-01T07:45:39;15.80;;;10.73;;
6878;SDS011;3478;51.462;7.338;2023-03-01T07:50:42;20.17;;;10.40;;
6878;SDS011;3478;51.462;7.338;2023-03-01T07:55:44;15.40;;;12.00;;
6878;SDS011;3478;51.462;7.338;2023-03-01T08:00:45;17.30;;;11.33;;
6878;SDS011;3478;51.462;7.338;2023-03-01T08:05:49;14.10;;;11.60;;
6878;SDS011;3478;51.462;7.338;2023-03-01T08:10:51;10.97;;;9.80;;
6878;SDS011;3478;51.462;7.338;2023-03-01T08:15:52;11.67;;;9.30;;
6878;SDS011;3478;51.462;7.338;2023-03-01T08:20:56;16.37;;;9.60;;
6878;SDS011;3478;51.462;7.338;2023-03-01T08:26:04;12.37;;;8.20;;
6878;SDS011;3478;51.462;7.338;2023-03-01T08:31:13;13.43;;;9.03;;
6878;SDS011;3478;51.462;7.338;2023-03-01T08:36:18;11.37;;;9.20;;
6878;SDS011;3478;51.462;7.338;2023-03-01T08:41:20;13.60;;;9.50;;
6878;SDS011;3478;51.462;7.338;2023-03-01T08:46:22;13.80;;;9.50;;
6878;SDS011;3478;51.462;7.338;2023-03-01T08:51:26;12.83;;;9.80;;
6878;SDS011;3478;51.462;7.338;2023-03-01T08:56:29;11.43;;;9.30;;
6878;SDS011;3478;51.462;7.338;2023-03-01T09:01:30;11.67;;;9.30;;
6878;SDS011;3478;51.462;7.338;2023-03-01T09:06:34;15.53;;;9.20;;
6878;SDS011;3478;51.462;7.338;2023-03-01T09:11:36;11.13;;;8.40;;
6878;SDS011;3478;51.462;7.338;2023-03-01T09:16:37;13.90;;;7.97;;
6878;SDS011;3478;51.462;7.338;2023-03-01T09:21:41;8.20;;;7.40;;
6878;SDS011;3478;51.462;7.338;2023-03-01T09:26:55;12.80;;;8.03;;
6878;SDS011;3478;51.462;7.338;2023-03-01T09:31:57;11.17;;;7.53;;
6878;SDS011;3478;51.462;7.338;2023-03-01T09:37:00;11.90;;;7.20;;
6878;SDS011;3478;51.462;7.338;2023-03-01T09:42:03;9.60;;;6.90;;
6878;SDS011;3478;51.462;7.338;2023-03-01T09:47:05;8.53;;;7.27;;
6878;SDS011;3478;51.462;7.338;2023-03-01T09:52:19;9.80;;;7.20;;
6878;SDS011;3478;51.462;7.338;2023-03-01T09:57:27;7.00;;;6.40;;
6878;SDS011;3478;51.462;7.338;2023-03-01T10:02:38;7.30;;;6.60;;
6878;SDS011;3478;51.462;7.338;2023-03-01T10:07:45;7.93;;;6.63;;
6878;SDS011;3478;51.462;7.338;2023-03-01T10:12:55;9.70;;;6.57;;
6878;SDS011;3478;51.462;7.338;2023-03-01T10:18:00;9.53;;;7.03;;
6878;SDS011;3478;51.462;7.338;2023-03-01T10:23:08;11.13;;;6.87;;
6878;SDS011;3478;51.462;7.338;2023-03-01T10:28:14;13.47;;;6.10;;
6878;SDS011;3478;51.462;7.338;2023-03-01T10:33:20;7.40;;;6.60;;
6878;SDS011;3478;51.462;7.338;2023-03-01T10:38:25;7.90;;;7.10;;
6878;SDS011;3478;51.462;7.338;2023-03-01T10:43:32;9.93;;;6.60;;
6878;SDS011;3478;51.462;7.338;2023-03-01T10:48:44;8.57;;;6.60;;
6878;SDS011;3478;51.462;7.338;2023-03-01T10:53:48;8.90;;;7.13;;
6878;SDS011;3478;51.462;7.338;2023-03-01T10:58:58;7.73;;;6.43;;
6878;SDS011;3478;51.462;7.338;2023-03-01T11:04:10;8.10;;;6.53;;
6878;SDS011;3478;51.462;7.338;2023-03-01T11:09:15;7.83;;;7.13;;
6878;SDS011;3478;51.462;7.338;2023-03-01T11:14:20;10.07;;;7.50;;
6878;SDS011;3478;51.462;7.338;2023-03-01T11:19:24;9.00;;;7.40;;
6878;SDS011;3478;51.462;7.338;2023-03-01T11:24:31;8.67;;;6.87;;
6878;SDS011;3478;51.462;7.338;2023-03-01T11:29:40;7.30;;;6.60;;
6878;SDS011;3478;51.462;7.338;2023-03-01T11:34:47;7.93;;;7.00;;
6878;SDS011;3478;51.462;7.338;2023-03-01T11:39:54;8.60;;;7.53;;
6878;SDS011;3478;51.462;7.338;2023-03-01T11:45:02;8.70;;;7.03;;
6878;SDS011;3478;51.462;7.338;2023-03-01T11:50:17;12.07;;;6.97;;
6878;SDS011;3478;51.462;7.338;2023-03-01T11:55:29;12.63;;;6.83;;
6878;SDS011;3478;51.462;7.338;2023-03-01T12:00:44;9.10;;;7.47;;
6878;SDS011;3478;51.462;7.338;2023-03-01T12:11:39;7.60;;;6.80;;
6878;SDS011;3478;51.462;7.338;2023-03-01T12:16:52;6.97;;;6.30;;
6878;SDS011;3478;51.462;7.338;2023-03-01T12:22:07;9.00;;;6.47;;
6878;SDS011;3478;51.462;7.338;2023-03-01T12:27:30;7.00;;;6.30;;
6878;SDS011;3478;51.462;7.338;2023-03-01T12:32:50;8.70;;;7.90;;
6878;SDS011;3478;51.462;7.338;2023-03-01T12:38:05;7.47;;;6.73;;
6878;SDS011;3478;51.462;7.338;2023-03-01T12:43:28;9.90;;;6.77;;
6878;SDS011;3478;51.462;7.338;2023-03-01T12:48:42;6.93;;;6.23;;
6878;SDS011;3478;51.462;7.338;2023-03-01T12:53:49;8.63;;;7.47;;
6878;SDS011;3478;51.462;7.338;2023-03-01T12:58:56;7.93;;;7.13;;
6878;SDS011;3478;51.462;7.338;2023-03-01T13:04:11;8.17;;;7.03;;
6878;SDS011;3478;51.462;7.338;2023-03-01T13:09:20;7.10;;;6.43;;
6878;SDS011;3478;51.462;7.338;2023-03-01T13:19:56;6.77;;;6.27;;
6878;SDS011;3478;51.462;7.338;2023-03-01T13:25:10;7.40;;;6.47;;
6878;SDS011;3478;51.462;7.338;2023-03-01T13:35:45;6.93;;;6.27;;
6878;SDS011;3478;51.462;7.338;2023-03-01T13:40:57;7.27;;;6.57;;
6878;SDS011;3478;51.462;7.338;2023-03-01T13:46:07;6.97;;;6.33;;
6878;SDS011;3478;51.462;7.338;2023-03-01T13:51:11;14.03;;;7.30;;
6878;SDS011;3478;51.462;7.338;2023-03-01T13:56:14;6.30;;;5.70;;
6878;SDS011;3478;51.462;7.338;2023-03-01T14:01:25;8.43;;;6.70;;
6878;SDS011;3478;51.462;7.338;2023-03-01T14:06:29;7.43;;;6.40;;
6878;SDS011;3478;51.462;7.338;2023-03-01T14:11:42;6.53;;;5.93;;
6878;SDS011;3478;51.462;7.338;2023-03-01T14:17:10;10.43;;;6.93;;
6878;SDS011;3478;51.462;7.338;2023-03-01T14:22:25;12.23;;;5.70;;
6878;SDS011;3478;51.462;7.338;2023-03-01T14:27:29;5.70;;;5.20;;
6878;SDS011;3478;51.462;7.338;2023-03-01T14:32:37;5.53;;;5.13;;
6878;SDS011;3478;51.462;7.338;2023-03-01T14:37:39;5.90;;;5.40;;
6878;SDS011;3478;51.462;7.338;2023-03-01T14:42:41;5.90;;;5.50;;
6878;SDS011;3478;51.462;7.338;2023-03-01T14:47:44;6.37;;;5.77;;
6878;SDS011;3478;51.462;7.338;2023-03-01T14:52:47;10.10;;;5.50;;
6878;SDS011;3478;51.462;7.338;2023-03-01T14:57:52;5.80;;;5.30;;
6878;SDS011;3478;51.462;7.338;2023-03-01T15:02:55;7.03;;;5.17;;
6878;SDS011;3478;51.462;7.338;2023-03-01T15:08:00;6.10;;;5.50;;
6878;SDS011;3478;51.462;7.338;2023-03-01T15:13:10;7.37;;;6.37;;
6878;SDS011;3478;51.462;7.338;2023-03-01T15:18:15;9.67;;;5.70;;
6878;SDS011;3478;51.462;7.338;2023-03-01T15:23:23;5.23;;;4.80;;
6878;SDS011;3478;51.462;7.338;2023-03-01T15:28:27;9.33;;;5.77;;
6878;SDS011;3478;51.462;7.338;2023-03-01T15:33:33;5.57;;;5.07;;
6878;SDS011;3478;51.462;7.338;2023-03-01T15:38:49;6.30;;;5.70;;
6878;SDS011;3478;51.462;7.338;2023-03-01T15:43:54;5.17;;;4.80;;
6878;SDS011;3478;51.462;7.338;2023-03-01T15:48:58;5.47;;;4.97;;
6878;SDS011;3478;51.462;7.338;2023-03-01T15:54:03;6.17;;;5.53;;
6878;SDS011;3478;51.462;7.338;2023-03-01T15:59:09;5.60;;;5.13;;
6878;SDS011;3478;51.462;7.338;2023-03-01T16:04:16;5.83;;;5.33;;
6878;SDS011;3478;51.462;7.338;2023-03-01T16:09:23;7.10;;;6.47;;
6878;SDS011;3478;51.462;7.338;2023-03-01T16:14:26;5.30;;;4.90;;
6878;SDS011;3478;51.462;7.338;2023-03-01T16:19:29;5.80;;;5.40;;
6878;SDS011;3478;51.462;7.338;2023-03-01T16:24:31;8.23;;;5.63;;
6878;SDS011;3478;51.462;7.338;2023-03-01T16:29:32;6.27;;;5.17;;
6878;SDS011;3478;51.462;7.338;2023-03-01T16:34:36;6.33;;;5.13;;
6878;SDS011;3478;51.462;7.338;2023-03-01T16:39:38;4.93;;;4.50;;
6878;SDS011;3478;51.462;7.338;2023-03-01T16:44:39;8.23;;;5.20;;
6878;SDS011;3478;51.462;7.338;2023-03-01T16:49:43;6.90;;;6.20;;
6878;SDS011;3478;51.462;7.338;2023-03-01T16:54:45;6.73;;;5.90;;
6878;SDS011;3478;51.462;7.338;2023-03-01T16:59:47;10.77;;;6.00;;
6878;SDS011;3478;51.462;7.338;2023-03-01T17:04:54;7.67;;;5.97;;
6878;SDS011;3478;51.462;7.338;2023-03-01T17:09:57;6.80;;;6.07;;
6878;SDS011;3478;51.462;7.338;2023-03-01T17:14:58;7.83;;;4.60;;
6878;SDS011;3478;51.462;7.338;2023-03-01T17:20:02;6.00;;;5.50;;
6878;SDS011;3478;51.462;7.338;2023-03-01T17:25:07;7.80;;;5.30;;
6878;SDS011;3478;51.462;7.338;2023-03-01T17:30:10;4.33;;;3.67;;
6878;SDS011;3478;51.462;7.338;2023-03-01T17:35:15;6.70;;;5.00;;
6878;SDS011;3478;51.462;7.338;2023-03-01T17:40:17;3.90;;;3.60;;
6878;SDS011;3478;51.462;7.338;2023-03-01T17:45:19;4.13;;;3.73;;
6878;SDS011;3478;51.462;7.338;2023-03-01T17:50:22;4.10;;;3.73;;
6878;SDS011;3478;51.462;7.338;2023-03-01T17:55:24;6.97;;;4.13;;
6878;SDS011;3478;51.462;7.338;2023-03-01T18:00:28;4.87;;;4.37;;
6878;SDS011;3478;51.462;7.338;2023-03-01T18:05:32;6.53;;;4.13;;
6878;SDS011;3478;51.462;7.338;2023-03-01T18:10:36;6.63;;;4.70;;
6878;SDS011;3478;51.462;7.338;2023-03-01T18:15:38;5.03;;;4.40;;
6878;SDS011;3478;51.462;7.338;2023-03-01T18:20:41;7.37;;;4.20;;
6878;SDS011;3478;51.462;7.338;2023-03-01T18:25:43;12.10;;;4.83;;
6878;SDS011;3478;51.462;7.338;2023-03-01T18:30:45;9.53;;;6.13;;
6878;SDS011;3478;51.462;7.338;2023-03-01T18:35:48;5.17;;;4.67;;
6878;SDS011;3478;51.462;7.338;2023-03-01T18:40:50;7.90;;;4.80;;
6878;SDS011;3478;51.462;7.338;2023-03-01T18:45:54;7.90;;;5.77;;
6878;SDS011;3478;51.462;7.338;2023-03-01T18:51:05;7.33;;;6.20;;
6878;SDS011;3478;51.462;7.338;2023-03-01T18:56:08;7.17;;;6.50;;
6878;SDS011;3478;51.462;7.338;2023-03-01T19:01:11;7.03;;;5.90;;
6878;SDS011;3478;51.462;7.338;2023-03-01T19:06:16;5.90;;;5.33;;
6878;SDS011;3478;51.462;7.338;2023-03-01T19:11:18;7.17;;;5.87;;
6878;SDS011;3478;51.462;7.338;2023-03-01T19:16:21;8.83;;;7.00;;
6878;SDS011;3478;51.462;7.338;2023-03-01T19:21:29;9.53;;;5.63;;
6878;SDS011;3478;51.462;7.338;2023-03-01T19:26:32;8.33;;;5.40;;
6878;SDS011;3478;51.462;7.338;2023-03-01T19:31:34;7.33;;;6.53;;
6878;SDS011;3478;51.462;7.338;2023-03-01T19:36:37;9.50;;;7.10;;
6878;SDS011;3478;51.462;7.338;2023-03-01T19:41:40;6.83;;;6.10;;
6878;SDS011;3478;51.462;7.338;2023-03-01T19:46:43;9.80;;;7.30;;
6878;SDS011;3478;51.462;7.338;2023-03-01T19:51:46;8.90;;;6.10;;
6878;SDS011;3478;51.462;7.338;2023-03-01T19:56:48;6.30;;;5.63;;
6878;SDS011;3478;51.462;7.338;2023-03-01T20:01:50;12.33;;;7.20;;
6878;SDS011;3478;51.462;7.338;2023-03-01T20:06:54;9.20;;;7.00;;
6878;SDS011;3478;51.462;7.338;2023-03-01T20:11:55;11.67;;;5.93;;
6878;SDS011;3478;51.462;7.338;2023-03-01T20:16:57;9.50;;;5.60;;
6878;SDS011;3478;51.462;7.338;2023-03-01T20:22:00;9.60;;;6.63;;
6878;SDS011;3478;51.462;7.338;2023-03-01T20:27:03;8.40;;;6.20;;
6878;SDS011;3478;51.462;7.338;2023-03-01T20:32:05;9.97;;;5.87;;
6878;SDS011;3478;51.462;7.338;2023-03-01T20:37:08;6.07;;;5.57;;
6878;SDS011;3478;51.462;7.338;2023-03-01T20:42:10;9.03;;;6.50;;
6878;SDS011;3478;51.462;7.338;2023-03-01T20:47:12;9.33;;;5.43;;
6878;SDS011;3478;51.462;7.338;2023-03-01T20:52:15;13.60;;;6.63;;
6878;SDS011;3478;51.462;7.338;2023-03-01T20:57:17;7.57;;;5.63;;
6878;SDS011;3478;51.462;7.338;2023-03-01T21:02:19;18.57;;;6.50;;
6878;SDS011;3478;51.462;7.338;2023-03-01T21:07:22;6.73;;;6.10;;
6878;SDS011;3478;51.462;7.338;2023-03-01T21:12:24;10.87;;;6.53;;
6878;SDS011;3478;51.462;7.338;2023-03-01T21:17:26;7.90;;;6.10;;
6878;SDS011;3478;51.462;7.338;2023-03-01T21:22:29;6.20;;;5.60;;
6878;SDS011;3478;51.462;7.338;2023-03-01T21:27:34;8.67;;;6.87;;
6878;SDS011;3478;51.462;7.338;2023-03-01T21:32:36;8.90;;;6.10;;
6878;SDS011;3478;51.462;7.338;2023-03-01T21:37:40;7.70;;;5.60;;
6878;SDS011;3478;51.462;7.338;2023-03-01T21:42:41;8.83;;;5.10;;
6878;SDS011;3478;51.462;7.338;2023-03-01T21:47:44;7.03;;;5.77;;
6878;SDS011;3478;51.462;7.338;2023-03-01T21:52:47;7.07;;;5.10;;
6878;SDS011;3478;51.462;7.338;2023-03-01T21:57:49;7.50;;;5.03;;
6878;SDS011;3478;51.462;7.338;2023-03-01T22:02:51;5.77;;;4.80;;
6878;SDS011;3478;51.462;7.338;2023-03-01T22:07:58;5.83;;;4.67;;
6878;SDS011;3478;51.462;7.338;2023-03-01T22:13:00;6.13;;;5.53;;
6878;SDS011;3478;51.462;7.338;2023-03-01T22:18:02;6.33;;;5.27;;
6878;SDS011;3478;51.462;7.338;2023-03-01T22:23:05;8.47;;;6.17;;
6878;SDS011;3478;51.462;7.338;2023-03-01T22:28:08;13.03;;;6.00;;
6878;SDS011;3478;51.462;7.338;2023-03-01T22:33:09;5.83;;;5.30;;
6878;SDS011;3478;51.462;7.338;2023-03-01T22:38:13;10.40;;;6.17;;
6878;SDS011;3478;51.462;7.338;2023-03-01T22:43:14;5.30;;;4.80;;
6878;SDS011;3478;51.462;7.338;2023-03-01T22:48:16;6.27;;;5.30;;
6878;SDS011;3478;51.462;7.338;2023-03-01T22:53:19;7.40;;;5.63;;
6878;SDS011;3478;51.462;7.338;2023-03-01T22:58:21;5.83;;;5.13;;
6878;SDS011;3478;51.462;7.338;2023-03-01T23:03:23;6.67;;;5.90;;
6878;SDS011;3478;51.462;7.338;2023-03-01T23:08:26;9.20;;;5.47;;
6878;SDS011;3478;51.462;7.338;2023-03-01T23:13:28;7.20;;;5.40;;
6878;SDS011;3478;51.462;7.338;2023-03-01T23:18:30;6.07;;;5.00;;
6878;SDS011;3478;51.462;7.338;2023-03-01T23:23:33;11.80;;;4.87;;
6878;SDS011;3478;51.462;7.338;2023-03-01T23:28:35;6.67;;;5.80;;
6878;SDS011;3478;51.462;7.338;2023-03-01T23:33:39;10.03;;;5.30;;
6878;SDS011;3478;51.462;7.338;2023-03-01T23:38:44;9.40;;;5.80;;
6878;SDS011;3478;51.462;7.338;2023-03-01T23:43:48;8.30;;;5.70;;
6878;SDS011;3478;51.462;7.338;2023-03-01T23:48:51;6.70;;;6.10;;
6878;SDS011;3478;51.462;7.338;2023-03-01T23:53:56;8.40;;;5.20;;
6878;SDS011;3478;51.462;7.338;2023-03-01T23:59:02;10.37;;;6.17;;
